sensor_id;sensor_type;location;lat;lon;timestamp;P1;durP1;ratioP1;P2;durP2;ratioP2
46334;SDS011;32051;48.882;9.210;2023-03-24T00:01:04;1.48;;;1.23;;
46334;SDS011;32051;48.882;9.210;2023-03-24T00:03:31;3.13;;;1.73;;
46334;SDS011;32051;48.882;9.210;2023-03-24T00:05:58;1.30;;;1.20;;
46334;SDS011;32051;48.882;9.210;2023-03-24T00:08:30;2.22;;;2.08;;
46334;SDS011;32051;48.882;9.210;2023-03-24T00:11:04;4.60;;;1.63;;
46334;SDS011;32051;48.882;9.210;2023-03-24T00:13:33;1.60;;;1.50;;
46334;SDS011;32051;48.882;9.210;2023-03-24T00:16:06;1.25;;;1.20;;
46334;SDS011;32051;48.882;9.210;2023-03-24T00:18:34;2.22;;;1.45;;
46334;SDS011;32051;48.882;9.210;2023-03-24T00:21:01;2.47;;;1.50;;
46334;SDS011;32051;48.882;9.210;2023-03-24T00:23:28;2.03;;;1.33;;
46334;SDS011;32051;48.882;9.210;2023-03-24T00:25:59;2.13;;;1.20;;
46334;SDS011;32051;48.882;9.210;2023-03-24T00:28:33;2.15;;;1.30;;
46334;SDS011;32051;48.882;9.210;2023-03-24T00:31:01;2.03;;;1.65;;
46334;SDS011;32051;48.882;9.210;2023-03-24T00:33:30;2.63;;;1.40;;
46334;SDS011;32051;48.882;9.210;2023-03-24T00:35:57;4.95;;;1.80;;
46334;SDS011;32051;48.882;9.210;2023-03-24T00:38:24;1.67;;;1.58;;
46334;SDS011;32051;48.882;9.210;2023-03-24T00:40:50;1.58;;;1.48;;
46334;SDS011;32051;48.882;9.210;2023-03-24T00:43:17;6.03;;;1.95;;
46334;SDS011;32051;48.882;9.210;2023-03-24T00:45:43;5.68;;;1.98;;
46334;SDS011;32051;48.882;9.210;2023-03-24T00:48:12;1.95;;;1.80;;
46334;SDS011;32051;48.882;9.210;2023-03-24T00:50:38;2.35;;;1.52;;
46334;SDS011;32051;48.882;9.210;2023-03-24T00:53:09;3.25;;;1.25;;
46334;SDS011;32051;48.882;9.210;2023-03-24T00:55:35;7.22;;;1.40;;
46334;SDS011;32051;48.882;9.210;2023-03-24T00:58:02;2.05;;;1.70;;
46334;SDS011;32051;48.882;9.210;2023-03-24T01:00:28;1.23;;;1.23;;
46334;SDS011;32051;48.882;9.210;2023-03-24T01:02:55;1.48;;;1.38;;
46334;SDS011;32051;48.882;9.210;2023-03-24T01:05:26;5.82;;;1.92;;
46334;SDS011;32051;48.882;9.210;2023-03-24T01:07:57;2.15;;;1.45;;
46334;SDS011;32051;48.882;9.210;2023-03-24T01:10:27;2.30;;;1.33;;
46334;SDS011;32051;48.882;9.210;2023-03-24T01:12:56;1.73;;;1.40;;
46334;SDS011;32051;48.882;9.210;2023-03-24T01:15:24;2.70;;;1.50;;
46334;SDS011;32051;48.882;9.210;2023-03-24T01:17:52;4.18;;;2.28;;
46334;SDS011;32051;48.882;9.210;2023-03-24T01:20:18;2.15;;;1.40;;
46334;SDS011;32051;48.882;9.210;2023-03-24T01:22:47;2.95;;;1.20;;
46334;SDS011;32051;48.882;9.210;2023-03-24T01:25:17;1.25;;;1.20;;
46334;SDS011;32051;48.882;9.210;2023-03-24T01:27:46;5.10;;;0.98;;
46334;SDS011;32051;48.882;9.210;2023-03-24T01:30:13;1.27;;;1.17;;
46334;SDS011;32051;48.882;9.210;2023-03-24T01:32:41;2.50;;;1.55;;
46334;SDS011;32051;48.882;9.210;2023-03-24T01:35:08;3.20;;;1.73;;
46334;SDS011;32051;48.882;9.210;2023-03-24T01:37:35;1.50;;;1.08;;
46334;SDS011;32051;48.882;9.210;2023-03-24T01:40:01;2.90;;;1.33;;
46334;SDS011;32051;48.882;9.210;2023-03-24T01:42:31;1.75;;;1.60;;
46334;SDS011;32051;48.882;9.210;2023-03-24T01:44:59;4.45;;;1.48;;
46334;SDS011;32051;48.882;9.210;2023-03-24T01:47:45;2.40;;;1.80;;
46334;SDS011;32051;48.882;9.210;2023-03-24T01:50:11;1.83;;;1.70;;
46334;SDS011;32051;48.882;9.210;2023-03-24T01:52:38;3.85;;;1.48;;
46334;SDS011;32051;48.882;9.210;2023-03-24T01:55:16;4.68;;;1.67;;
46334;SDS011;32051;48.882;9.210;2023-03-24T01:57:46;2.25;;;1.58;;
46334;SDS011;32051;48.882;9.210;2023-03-24T02:00:19;1.88;;;1.77;;
46334;SDS011;32051;48.882;9.210;2023-03-24T02:03:11;1.77;;;1.50;;
46334;SDS011;32051;48.882;9.210;2023-03-24T02:05:48;2.77;;;1.50;;
46334;SDS011;32051;48.882;9.210;2023-03-24T02:10:55;2.35;;;1.67;;
46334;SDS011;32051;48.882;9.210;2023-03-24T02:13:25;4.57;;;1.48;;
46334;SDS011;32051;48.882;9.210;2023-03-24T02:15:59;1.85;;;1.13;;
46334;SDS011;32051;48.882;9.210;2023-03-24T02:19:00;3.55;;;1.40;;
46334;SDS011;32051;48.882;9.210;2023-03-24T02:31:23;2.72;;;1.48;;
46334;SDS011;32051;48.882;9.210;2023-03-24T02:37:06;1.60;;;1.00;;
46334;SDS011;32051;48.882;9.210;2023-03-24T02:44:41;1.30;;;1.20;;
46334;SDS011;32051;48.882;9.210;2023-03-24T02:47:23;1.20;;;1.10;;
46334;SDS011;32051;48.882;9.210;2023-03-24T02:49:55;1.23;;;1.13;;
46334;SDS011;32051;48.882;9.210;2023-03-24T02:55:17;2.08;;;1.17;;
46334;SDS011;32051;48.882;9.210;2023-03-24T02:57:54;1.48;;;1.38;;
46334;SDS011;32051;48.882;9.210;2023-03-24T03:01:11;2.08;;;1.40;;
46334;SDS011;32051;48.882;9.210;2023-03-24T03:04:14;1.52;;;1.08;;
46334;SDS011;32051;48.882;9.210;2023-03-24T03:06:43;1.27;;;1.05;;
46334;SDS011;32051;48.882;9.210;2023-03-24T03:09:15;1.65;;;1.55;;
46334;SDS011;32051;48.882;9.210;2023-03-24T03:11:45;4.03;;;1.20;;
46334;SDS011;32051;48.882;9.210;2023-03-24T03:14:27;3.63;;;1.23;;
46334;SDS011;32051;48.882;9.210;2023-03-24T03:17:15;2.28;;;1.10;;
46334;SDS011;32051;48.882;9.210;2023-03-24T03:19:54;1.40;;;1.30;;
46334;SDS011;32051;48.882;9.210;2023-03-24T03:22:45;1.50;;;1.40;;
46334;SDS011;32051;48.882;9.210;2023-03-24T03:25:15;2.15;;;1.92;;
46334;SDS011;32051;48.882;9.210;2023-03-24T03:27:46;1.00;;;1.00;;
46334;SDS011;32051;48.882;9.210;2023-03-24T03:30:20;2.28;;;1.30;;
46334;SDS011;32051;48.882;9.210;2023-03-24T03:32:59;1.90;;;1.77;;
46334;SDS011;32051;48.882;9.210;2023-03-24T03:35:32;1.27;;;1.23;;
46334;SDS011;32051;48.882;9.210;2023-03-24T03:40:49;1.20;;;1.10;;
46334;SDS011;32051;48.882;9.210;2023-03-24T03:43:24;0.90;;;0.90;;
46334;SDS011;32051;48.882;9.210;2023-03-24T03:45:51;0.80;;;0.80;;
46334;SDS011;32051;48.882;9.210;2023-03-24T03:48:25;0.77;;;0.77;;
46334;SDS011;32051;48.882;9.210;2023-03-24T03:50:53;1.10;;;1.00;;
46334;SDS011;32051;48.882;9.210;2023-03-24T03:53:22;6.43;;;1.20;;
46334;SDS011;32051;48.882;9.210;2023-03-24T03:56:23;2.70;;;1.10;;
46334;SDS011;32051;48.882;9.210;2023-03-24T03:59:21;1.63;;;1.52;;
46334;SDS011;32051;48.882;9.210;2023-03-24T04:01:49;4.00;;;1.02;;
46334;SDS011;32051;48.882;9.210;2023-03-24T04:05:03;1.00;;;0.82;;
46334;SDS011;32051;48.882;9.210;2023-03-24T04:13:36;4.03;;;1.25;;
46334;SDS011;32051;48.882;9.210;2023-03-24T04:19:30;1.27;;;1.17;;
46334;SDS011;32051;48.882;9.210;2023-03-24T04:27:32;3.13;;;1.98;;
46334;SDS011;32051;48.882;9.210;2023-03-24T04:32:56;1.83;;;1.15;;
46334;SDS011;32051;48.882;9.210;2023-03-24T04:35:41;2.17;;;0.90;;
46334;SDS011;32051;48.882;9.210;2023-03-24T04:38:22;3.17;;;0.90;;
46334;SDS011;32051;48.882;9.210;2023-03-24T04:41:07;1.60;;;0.93;;
46334;SDS011;32051;48.882;9.210;2023-03-24T04:43:35;0.80;;;0.80;;
46334;SDS011;32051;48.882;9.210;2023-03-24T04:46:05;2.63;;;0.88;;
46334;SDS011;32051;48.882;9.210;2023-03-24T04:48:49;1.15;;;1.10;;
46334;SDS011;32051;48.882;9.210;2023-03-24T04:51:21;3.00;;;1.50;;
46334;SDS011;32051;48.882;9.210;2023-03-24T04:54:02;1.45;;;1.08;;
46334;SDS011;32051;48.882;9.210;2023-03-24T04:56:35;1.38;;;1.27;;
46334;SDS011;32051;48.882;9.210;2023-03-24T04:59:16;1.27;;;1.02;;
46334;SDS011;32051;48.882;9.210;2023-03-24T05:01:43;3.00;;;1.00;;
46334;SDS011;32051;48.882;9.210;2023-03-24T05:04:38;2.50;;;1.17;;
46334;SDS011;32051;48.882;9.210;2023-03-24T05:07:18;1.05;;;0.90;;
46334;SDS011;32051;48.882;9.210;2023-03-24T05:09:47;3.42;;;0.82;;
46334;SDS011;32051;48.882;9.210;2023-03-24T05:12:12;2.15;;;1.02;;
46334;SDS011;32051;48.882;9.210;2023-03-24T05:14:58;1.15;;;1.05;;
46334;SDS011;32051;48.882;9.210;2023-03-24T05:17:24;5.97;;;0.90;;
46334;SDS011;32051;48.882;9.210;2023-03-24T05:19:50;1.10;;;1.00;;
46334;SDS011;32051;48.882;9.210;2023-03-24T05:22:15;2.80;;;1.02;;
46334;SDS011;32051;48.882;9.210;2023-03-24T05:24:41;1.08;;;1.00;;
46334;SDS011;32051;48.882;9.210;2023-03-24T05:27:07;1.38;;;1.23;;
46334;SDS011;32051;48.882;9.210;2023-03-24T05:29:34;5.78;;;1.75;;
46334;SDS011;32051;48.882;9.210;2023-03-24T05:32:02;1.90;;;1.80;;
46334;SDS011;32051;48.882;9.210;2023-03-24T05:34:29;3.25;;;1.40;;
46334;SDS011;32051;48.882;9.210;2023-03-24T05:37:04;9.65;;;1.40;;
46334;SDS011;32051;48.882;9.210;2023-03-24T05:39:30;4.22;;;1.20;;
46334;SDS011;32051;48.882;9.210;2023-03-24T05:42:11;4.55;;;1.58;;
46334;SDS011;32051;48.882;9.210;2023-03-24T05:44:38;2.10;;;1.85;;
46334;SDS011;32051;48.882;9.210;2023-03-24T05:47:08;1.95;;;1.85;;
46334;SDS011;32051;48.882;9.210;2023-03-24T05:49:34;1.90;;;1.80;;
46334;SDS011;32051;48.882;9.210;2023-03-24T05:52:01;4.45;;;1.73;;
46334;SDS011;32051;48.882;9.210;2023-03-24T05:54:27;1.40;;;1.30;;
46334;SDS011;32051;48.882;9.210;2023-03-24T05:57:02;1.48;;;1.13;;
46334;SDS011;32051;48.882;9.210;2023-03-24T05:59:31;1.75;;;1.65;;
46334;SDS011;32051;48.882;9.210;2023-03-24T06:01:56;2.63;;;1.85;;
46334;SDS011;32051;48.882;9.210;2023-03-24T06:04:43;1.70;;;1.58;;
46334;SDS011;32051;48.882;9.210;2023-03-24T06:07:14;1.60;;;1.50;;
46334;SDS011;32051;48.882;9.210;2023-03-24T06:09:42;3.13;;;2.17;;
46334;SDS011;32051;48.882;9.210;2023-03-24T06:12:12;3.33;;;1.50;;
46334;SDS011;32051;48.882;9.210;2023-03-24T06:14:46;1.83;;;1.70;;
46334;SDS011;32051;48.882;9.210;2023-03-24T06:17:12;1.70;;;1.60;;
46334;SDS011;32051;48.882;9.210;2023-03-24T06:19:40;3.65;;;1.80;;
46334;SDS011;32051;48.882;9.210;2023-03-24T06:22:37;1.83;;;1.73;;
46334;SDS011;32051;48.882;9.210;2023-03-24T06:25:10;2.38;;;1.90;;
46334;SDS011;32051;48.882;9.210;2023-03-24T06:27:40;2.42;;;2.10;;
46334;SDS011;32051;48.882;9.210;2023-03-24T06:30:15;2.03;;;1.83;;
46334;SDS011;32051;48.882;9.210;2023-03-24T06:32:42;5.85;;;2.17;;
46334;SDS011;32051;48.882;9.210;2023-03-24T06:35:10;1.88;;;1.58;;
46334;SDS011;32051;48.882;9.210;2023-03-24T06:37:42;1.98;;;1.88;;
46334;SDS011;32051;48.882;9.210;2023-03-24T06:40:12;2.20;;;2.05;;
46334;SDS011;32051;48.882;9.210;2023-03-24T06:42:47;2.08;;;1.98;;
46334;SDS011;32051;48.882;9.210;2023-03-24T06:45:14;2.35;;;2.15;;
46334;SDS011;32051;48.882;9.210;2023-03-24T06:47:40;3.63;;;1.63;;
46334;SDS011;32051;48.882;9.210;2023-03-24T06:50:07;3.42;;;1.90;;
46334;SDS011;32051;48.882;9.210;2023-03-24T06:52:33;2.03;;;1.92;;
46334;SDS011;32051;48.882;9.210;2023-03-24T06:55:00;4.25;;;1.95;;
46334;SDS011;32051;48.882;9.210;2023-03-24T06:57:28;3.50;;;1.70;;
46334;SDS011;32051;48.882;9.210;2023-03-24T07:00:13;1.63;;;1.52;;
46334;SDS011;32051;48.882;9.210;2023-03-24T07:02:55;1.80;;;1.70;;
46334;SDS011;32051;48.882;9.210;2023-03-24T07:05:21;1.52;;;1.42;;
46334;SDS011;32051;48.882;9.210;2023-03-24T07:07:48;2.03;;;1.55;;
46334;SDS011;32051;48.882;9.210;2023-03-24T07:10:40;2.13;;;1.77;;
46334;SDS011;32051;48.882;9.210;2023-03-24T07:13:07;5.60;;;1.75;;
46334;SDS011;32051;48.882;9.210;2023-03-24T07:15:35;5.05;;;1.70;;
46334;SDS011;32051;48.882;9.210;2023-03-24T07:18:02;3.38;;;1.67;;
46334;SDS011;32051;48.882;9.210;2023-03-24T07:20:34;2.70;;;1.55;;
46334;SDS011;32051;48.882;9.210;2023-03-24T07:23:12;4.95;;;1.90;;
46334;SDS011;32051;48.882;9.210;2023-03-24T07:25:48;1.70;;;1.60;;
46334;SDS011;32051;48.882;9.210;2023-03-24T07:30:47;1.85;;;1.75;;
46334;SDS011;32051;48.882;9.210;2023-03-24T07:33:13;2.38;;;1.92;;
46334;SDS011;32051;48.882;9.210;2023-03-24T07:35:42;1.70;;;1.60;;
46334;SDS011;32051;48.882;9.210;2023-03-24T07:38:08;1.77;;;1.67;;
46334;SDS011;32051;48.882;9.210;2023-03-24T07:40:35;2.17;;;1.98;;
46334;SDS011;32051;48.882;9.210;2023-03-24T07:43:01;2.17;;;2.00;;
46334;SDS011;32051;48.882;9.210;2023-03-24T07:45:32;2.42;;;1.67;;
46334;SDS011;32051;48.882;9.210;2023-03-24T07:47:58;1.90;;;1.75;;
46334;SDS011;32051;48.882;9.210;2023-03-24T07:50:31;2.15;;;2.00;;
46334;SDS011;32051;48.882;9.210;2023-03-24T07:52:59;1.88;;;1.25;;
46334;SDS011;32051;48.882;9.210;2023-03-24T07:55:26;2.08;;;1.98;;
46334;SDS011;32051;48.882;9.210;2023-03-24T07:57:59;3.53;;;1.55;;
46334;SDS011;32051;48.882;9.210;2023-03-24T08:00:27;1.60;;;1.50;;
46334;SDS011;32051;48.882;9.210;2023-03-24T08:03:14;3.53;;;1.60;;
46334;SDS011;32051;48.882;9.210;2023-03-24T08:05:47;2.75;;;2.03;;
46334;SDS011;32051;48.882;9.210;2023-03-24T08:08:29;7.22;;;1.77;;
46334;SDS011;32051;48.882;9.210;2023-03-24T08:10:56;2.53;;;1.77;;
46334;SDS011;32051;48.882;9.210;2023-03-24T08:13:22;3.55;;;1.38;;
46334;SDS011;32051;48.882;9.210;2023-03-24T08:15:48;1.70;;;1.60;;
46334;SDS011;32051;48.882;9.210;2023-03-24T08:18:15;4.05;;;1.80;;
46334;SDS011;32051;48.882;9.210;2023-03-24T08:20:41;2.38;;;1.52;;
46334;SDS011;32051;48.882;9.210;2023-03-24T08:23:08;2.78;;;1.60;;
46334;SDS011;32051;48.882;9.210;2023-03-24T08:25:34;2.42;;;1.50;;
46334;SDS011;32051;48.882;9.210;2023-03-24T08:28:01;3.40;;;1.42;;
46334;SDS011;32051;48.882;9.210;2023-03-24T08:30:28;1.98;;;1.40;;
46334;SDS011;32051;48.882;9.210;2023-03-24T08:32:59;6.10;;;1.63;;
46334;SDS011;32051;48.882;9.210;2023-03-24T08:35:30;3.55;;;1.38;;
46334;SDS011;32051;48.882;9.210;2023-03-24T08:37:57;2.05;;;1.60;;
46334;SDS011;32051;48.882;9.210;2023-03-24T08:40:25;2.03;;;1.33;;
46334;SDS011;32051;48.882;9.210;2023-03-24T08:42:53;1.98;;;1.83;;
46334;SDS011;32051;48.882;9.210;2023-03-24T08:45:22;1.55;;;1.45;;
46334;SDS011;32051;48.882;9.210;2023-03-24T08:47:51;2.03;;;1.70;;
46334;SDS011;32051;48.882;9.210;2023-03-24T08:50:19;2.65;;;2.10;;
46334;SDS011;32051;48.882;9.210;2023-03-24T08:52:48;1.85;;;1.70;;
46334;SDS011;32051;48.882;9.210;2023-03-24T08:55:17;2.17;;;2.08;;
46334;SDS011;32051;48.882;9.210;2023-03-24T08:57:43;1.70;;;1.60;;
46334;SDS011;32051;48.882;9.210;2023-03-24T09:00:10;2.72;;;1.85;;
46334;SDS011;32051;48.882;9.210;2023-03-24T09:02:40;2.15;;;1.88;;
46334;SDS011;32051;48.882;9.210;2023-03-24T09:05:06;1.88;;;1.77;;
46334;SDS011;32051;48.882;9.210;2023-03-24T09:07:32;2.42;;;1.23;;
46334;SDS011;32051;48.882;9.210;2023-03-24T09:09:58;1.52;;;1.42;;
46334;SDS011;32051;48.882;9.210;2023-03-24T09:12:23;1.88;;;1.60;;
46334;SDS011;32051;48.882;9.210;2023-03-24T09:14:49;1.80;;;1.15;;
46334;SDS011;32051;48.882;9.210;2023-03-24T09:17:15;1.30;;;1.20;;
46334;SDS011;32051;48.882;9.210;2023-03-24T09:19:42;1.58;;;1.00;;
46334;SDS011;32051;48.882;9.210;2023-03-24T09:22:08;0.80;;;0.80;;
46334;SDS011;32051;48.882;9.210;2023-03-24T09:24:35;1.45;;;0.93;;
46334;SDS011;32051;48.882;9.210;2023-03-24T09:27:00;3.78;;;1.45;;
46334;SDS011;32051;48.882;9.210;2023-03-24T09:29:26;0.77;;;0.77;;
46334;SDS011;32051;48.882;9.210;2023-03-24T09:31:54;0.77;;;0.77;;
46334;SDS011;32051;48.882;9.210;2023-03-24T09:34:21;2.95;;;1.27;;
46334;SDS011;32051;48.882;9.210;2023-03-24T09:36:47;2.10;;;1.30;;
46334;SDS011;32051;48.882;9.210;2023-03-24T09:39:14;0.93;;;0.93;;
46334;SDS011;32051;48.882;9.210;2023-03-24T09:41:41;3.08;;;0.90;;
46334;SDS011;32051;48.882;9.210;2023-03-24T09:44:23;1.00;;;1.00;;
46334;SDS011;32051;48.882;9.210;2023-03-24T09:49:51;1.20;;;1.10;;
46334;SDS011;32051;48.882;9.210;2023-03-24T09:52:20;1.83;;;1.40;;
46334;SDS011;32051;48.882;9.210;2023-03-24T09:54:53;0.95;;;0.75;;
46334;SDS011;32051;48.882;9.210;2023-03-24T09:57:27;1.10;;;1.00;;
46334;SDS011;32051;48.882;9.210;2023-03-24T10:00:02;1.38;;;1.38;;
46334;SDS011;32051;48.882;9.210;2023-03-24T10:02:50;0.70;;;0.70;;
46334;SDS011;32051;48.882;9.210;2023-03-24T10:07:58;0.90;;;0.90;;
46334;SDS011;32051;48.882;9.210;2023-03-24T10:10:37;4.13;;;0.90;;
46334;SDS011;32051;48.882;9.210;2023-03-24T10:13:25;1.00;;;1.00;;
46334;SDS011;32051;48.882;9.210;2023-03-24T10:21:25;1.10;;;1.10;;
46334;SDS011;32051;48.882;9.210;2023-03-24T10:29:26;0.95;;;0.95;;
46334;SDS011;32051;48.882;9.210;2023-03-24T10:31:57;1.17;;;1.00;;
46334;SDS011;32051;48.882;9.210;2023-03-24T10:34:30;3.05;;;0.80;;
46334;SDS011;32051;48.882;9.210;2023-03-24T10:36:58;1.00;;;0.55;;
46334;SDS011;32051;48.882;9.210;2023-03-24T10:39:26;0.80;;;0.80;;
46334;SDS011;32051;48.882;9.210;2023-03-24T10:41:53;1.25;;;0.70;;
46334;SDS011;32051;48.882;9.210;2023-03-24T10:44:20;2.45;;;1.13;;
46334;SDS011;32051;48.882;9.210;2023-03-24T10:46:48;0.70;;;0.70;;
46334;SDS011;32051;48.882;9.210;2023-03-24T10:49:20;0.60;;;0.60;;
46334;SDS011;32051;48.882;9.210;2023-03-24T10:51:48;1.00;;;0.52;;
46334;SDS011;32051;48.882;9.210;2023-03-24T10:56:44;0.98;;;0.70;;
46334;SDS011;32051;48.882;9.210;2023-03-24T10:59:17;3.03;;;0.93;;
46334;SDS011;32051;48.882;9.210;2023-03-24T11:02:24;0.65;;;0.60;;
46334;SDS011;32051;48.882;9.210;2023-03-24T11:05:00;0.57;;;0.57;;
46334;SDS011;32051;48.882;9.210;2023-03-24T11:07:38;1.27;;;0.82;;
46334;SDS011;32051;48.882;9.210;2023-03-24T11:12:35;0.40;;;0.40;;
46334;SDS011;32051;48.882;9.210;2023-03-24T11:17:52;1.25;;;0.88;;
46334;SDS011;32051;48.882;9.210;2023-03-24T11:23:05;0.73;;;0.63;;
46334;SDS011;32051;48.882;9.210;2023-03-24T11:25:35;0.38;;;0.30;;
46334;SDS011;32051;48.882;9.210;2023-03-24T11:28:23;0.52;;;0.50;;
46334;SDS011;32051;48.882;9.210;2023-03-24T11:30:52;0.40;;;0.40;;
46334;SDS011;32051;48.882;9.210;2023-03-24T11:33:23;0.98;;;0.60;;
46334;SDS011;32051;48.882;9.210;2023-03-24T11:35:57;0.60;;;0.60;;
46334;SDS011;32051;48.882;9.210;2023-03-24T11:38:32;0.32;;;0.32;;
46334;SDS011;32051;48.882;9.210;2023-03-24T11:41:00;3.45;;;0.45;;
46334;SDS011;32051;48.882;9.210;2023-03-24T11:43:29;0.85;;;0.63;;
46334;SDS011;32051;48.882;9.210;2023-03-24T11:45:57;1.45;;;0.60;;
46334;SDS011;32051;48.882;9.210;2023-03-24T11:51:05;0.70;;;0.70;;
46334;SDS011;32051;48.882;9.210;2023-03-24T11:54:08;3.00;;;0.50;;
46334;SDS011;32051;48.882;9.210;2023-03-24T11:59:02;2.80;;;0.60;;
46334;SDS011;32051;48.882;9.210;2023-03-24T12:02:10;1.30;;;0.40;;
46334;SDS011;32051;48.882;9.210;2023-03-24T12:08:19;1.45;;;1.02;;
46334;SDS011;32051;48.882;9.210;2023-03-24T12:10:33;2.60;;;0.70;;
46334;SDS011;32051;48.882;9.210;2023-03-24T12:13:09;0.60;;;0.60;;
46334;SDS011;32051;48.882;9.210;2023-03-24T12:15:39;0.90;;;0.70;;
46334;SDS011;32051;48.882;9.210;2023-03-24T12:21:13;0.80;;;0.80;;
46334;SDS011;32051;48.882;9.210;2023-03-24T12:23:47;0.60;;;0.60;;
46334;SDS011;32051;48.882;9.210;2023-03-24T12:26:31;0.88;;;0.68;;
46334;SDS011;32051;48.882;9.210;2023-03-24T12:34:47;0.47;;;0.40;;
46334;SDS011;32051;48.882;9.210;2023-03-24T12:40:24;2.35;;;0.38;;
46334;SDS011;32051;48.882;9.210;2023-03-24T12:43:14;1.15;;;0.70;;
46334;SDS011;32051;48.882;9.210;2023-03-24T12:51:39;0.77;;;0.43;;
46334;SDS011;32051;48.882;9.210;2023-03-24T12:54:22;0.30;;;0.30;;
46334;SDS011;32051;48.882;9.210;2023-03-24T13:04:49;0.20;;;0.20;;
46334;SDS011;32051;48.882;9.210;2023-03-24T13:07:22;0.35;;;0.22;;
46334;SDS011;32051;48.882;9.210;2023-03-24T13:15:01;0.20;;;0.20;;
46334;SDS011;32051;48.882;9.210;2023-03-24T13:19:59;0.75;;;0.40;;
46334;SDS011;32051;48.882;9.210;2023-03-24T13:22:31;1.58;;;0.77;;
46334;SDS011;32051;48.882;9.210;2023-03-24T13:25:00;1.88;;;0.65;;
46334;SDS011;32051;48.882;9.210;2023-03-24T13:27:27;12.38;;;1.20;;
46334;SDS011;32051;48.882;9.210;2023-03-24T13:32:52;1.92;;;0.80;;
46334;SDS011;32051;48.882;9.210;2023-03-24T13:38:14;7.05;;;1.42;;
46334;SDS011;32051;48.882;9.210;2023-03-24T13:40:44;3.90;;;0.70;;
46334;SDS011;32051;48.882;9.210;2023-03-24T13:43:18;3.22;;;0.70;;
46334;SDS011;32051;48.882;9.210;2023-03-24T13:45:48;4.50;;;1.00;;
46334;SDS011;32051;48.882;9.210;2023-03-24T13:51:04;2.33;;;0.77;;
46334;SDS011;32051;48.882;9.210;2023-03-24T13:53:49;3.80;;;0.85;;
46334;SDS011;32051;48.882;9.210;2023-03-24T13:56:23;1.23;;;0.65;;
46334;SDS011;32051;48.882;9.210;2023-03-24T14:01:36;1.13;;;0.65;;
46334;SDS011;32051;48.882;9.210;2023-03-24T14:11:43;0.88;;;0.60;;
46334;SDS011;32051;48.882;9.210;2023-03-24T14:16:49;2.92;;;1.60;;
46334;SDS011;32051;48.882;9.210;2023-03-24T14:19:35;0.50;;;0.50;;
46334;SDS011;32051;48.882;9.210;2023-03-24T14:22:12;3.85;;;0.95;;
46334;SDS011;32051;48.882;9.210;2023-03-24T14:24:56;0.60;;;0.60;;
46334;SDS011;32051;48.882;9.210;2023-03-24T14:30:04;2.28;;;0.90;;
46334;SDS011;32051;48.882;9.210;2023-03-24T14:35:21;4.82;;;0.73;;
46334;SDS011;32051;48.882;9.210;2023-03-24T14:37:52;2.03;;;0.65;;
46334;SDS011;32051;48.882;9.210;2023-03-24T14:40:26;4.10;;;0.73;;
46334;SDS011;32051;48.882;9.210;2023-03-24T14:42:53;0.85;;;0.65;;
46334;SDS011;32051;48.882;9.210;2023-03-24T14:47:58;2.40;;;1.02;;
46334;SDS011;32051;48.882;9.210;2023-03-24T14:50:25;2.50;;;1.10;;
46334;SDS011;32051;48.882;9.210;2023-03-24T14:52:52;2.42;;;1.02;;
46334;SDS011;32051;48.882;9.210;2023-03-24T14:55:20;2.35;;;0.85;;
46334;SDS011;32051;48.882;9.210;2023-03-24T14:57:47;1.55;;;1.02;;
46334;SDS011;32051;48.882;9.210;2023-03-24T15:00:22;2.55;;;1.23;;
46334;SDS011;32051;48.882;9.210;2023-03-24T15:13:31;2.25;;;0.85;;
46334;SDS011;32051;48.882;9.210;2023-03-24T15:15:58;1.98;;;0.68;;
46334;SDS011;32051;48.882;9.210;2023-03-24T15:18:25;0.75;;;0.40;;
46334;SDS011;32051;48.882;9.210;2023-03-24T15:20:51;4.80;;;1.10;;
46334;SDS011;32051;48.882;9.210;2023-03-24T15:23:18;1.65;;;0.73;;
46334;SDS011;32051;48.882;9.210;2023-03-24T15:25:45;2.33;;;0.90;;
46334;SDS011;32051;48.882;9.210;2023-03-24T15:28:19;0.90;;;0.52;;
46334;SDS011;32051;48.882;9.210;2023-03-24T15:30:46;1.23;;;0.95;;
46334;SDS011;32051;48.882;9.210;2023-03-24T15:33:12;5.78;;;0.75;;
46334;SDS011;32051;48.882;9.210;2023-03-24T15:35:39;2.63;;;0.57;;
46334;SDS011;32051;48.882;9.210;2023-03-24T15:38:05;0.70;;;0.40;;
46334;SDS011;32051;48.882;9.210;2023-03-24T15:40:33;0.60;;;0.60;;
46334;SDS011;32051;48.882;9.210;2023-03-24T15:43:04;1.63;;;0.45;;
46334;SDS011;32051;48.882;9.210;2023-03-24T15:45:41;2.58;;;0.50;;
46334;SDS011;32051;48.882;9.210;2023-03-24T15:48:11;1.42;;;0.60;;
46334;SDS011;32051;48.882;9.210;2023-03-24T15:50:39;0.77;;;0.77;;
46334;SDS011;32051;48.882;9.210;2023-03-24T15:55:43;0.65;;;0.57;;
46334;SDS011;32051;48.882;9.210;2023-03-24T15:58:23;3.38;;;0.52;;
46334;SDS011;32051;48.882;9.210;2023-03-24T16:00:53;0.60;;;0.50;;
46334;SDS011;32051;48.882;9.210;2023-03-24T16:03:20;1.52;;;0.70;;
46334;SDS011;32051;48.882;9.210;2023-03-24T16:05:50;0.75;;;0.70;;
46334;SDS011;32051;48.882;9.210;2023-03-24T16:08:22;1.52;;;0.65;;
46334;SDS011;32051;48.882;9.210;2023-03-24T16:10:56;1.48;;;0.63;;
46334;SDS011;32051;48.882;9.210;2023-03-24T16:13:29;4.47;;;0.73;;
46334;SDS011;32051;48.882;9.210;2023-03-24T16:15:56;2.75;;;0.63;;
46334;SDS011;32051;48.882;9.210;2023-03-24T16:18:31;0.85;;;0.65;;
46334;SDS011;32051;48.882;9.210;2023-03-24T16:20:58;1.10;;;0.70;;
46334;SDS011;32051;48.882;9.210;2023-03-24T16:23:25;1.95;;;0.65;;
46334;SDS011;32051;48.882;9.210;2023-03-24T16:25:51;0.50;;;0.50;;
46334;SDS011;32051;48.882;9.210;2023-03-24T16:28:18;0.70;;;0.63;;
46334;SDS011;32051;48.882;9.210;2023-03-24T16:30:47;0.75;;;0.47;;
46334;SDS011;32051;48.882;9.210;2023-03-24T16:33:21;0.50;;;0.50;;
46334;SDS011;32051;48.882;9.210;2023-03-24T16:35:47;0.55;;;0.40;;
46334;SDS011;32051;48.882;9.210;2023-03-24T16:38:13;1.15;;;0.93;;
46334;SDS011;32051;48.882;9.210;2023-03-24T16:40:40;0.60;;;0.60;;
46334;SDS011;32051;48.882;9.210;2023-03-24T16:43:09;0.50;;;0.50;;
46334;SDS011;32051;48.882;9.210;2023-03-24T16:45:35;1.65;;;1.10;;
46334;SDS011;32051;48.882;9.210;2023-03-24T16:48:01;0.65;;;0.60;;
46334;SDS011;32051;48.882;9.210;2023-03-24T16:50:35;0.20;;;0.20;;
46334;SDS011;32051;48.882;9.210;2023-03-24T16:53:01;0.50;;;0.40;;
46334;SDS011;32051;48.882;9.210;2023-03-24T16:55:32;0.77;;;0.73;;
46334;SDS011;32051;48.882;9.210;2023-03-24T16:57:59;2.30;;;0.35;;
46334;SDS011;32051;48.882;9.210;2023-03-24T17:00:25;0.82;;;0.50;;
46334;SDS011;32051;48.882;9.210;2023-03-24T17:02:51;0.52;;;0.52;;
46334;SDS011;32051;48.882;9.210;2023-03-24T17:08:14;0.47;;;0.47;;
46334;SDS011;32051;48.882;9.210;2023-03-24T17:10:42;0.68;;;0.68;;
46334;SDS011;32051;48.882;9.210;2023-03-24T17:13:16;0.40;;;0.40;;
46334;SDS011;32051;48.882;9.210;2023-03-24T17:15:44;4.03;;;0.70;;
46334;SDS011;32051;48.882;9.210;2023-03-24T17:18:10;0.80;;;0.60;;
46334;SDS011;32051;48.882;9.210;2023-03-24T17:20:36;0.40;;;0.40;;
46334;SDS011;32051;48.882;9.210;2023-03-24T17:23:04;5.28;;;0.57;;
46334;SDS011;32051;48.882;9.210;2023-03-24T17:25:32;0.63;;;0.50;;
46334;SDS011;32051;48.882;9.210;2023-03-24T17:27:58;2.75;;;0.40;;
46334;SDS011;32051;48.882;9.210;2023-03-24T17:30:24;2.15;;;0.90;;
46334;SDS011;32051;48.882;9.210;2023-03-24T17:32:51;0.75;;;0.60;;
46334;SDS011;32051;48.882;9.210;2023-03-24T17:35:19;0.60;;;0.60;;
46334;SDS011;32051;48.882;9.210;2023-03-24T17:37:46;1.00;;;0.73;;
46334;SDS011;32051;48.882;9.210;2023-03-24T17:40:13;1.30;;;0.50;;
46334;SDS011;32051;48.882;9.210;2023-03-24T17:42:41;1.20;;;1.10;;
46334;SDS011;32051;48.882;9.210;2023-03-24T17:45:08;1.58;;;0.60;;
46334;SDS011;32051;48.882;9.210;2023-03-24T17:47:36;0.50;;;0.50;;
46334;SDS011;32051;48.882;9.210;2023-03-24T17:50:03;0.47;;;0.47;;
46334;SDS011;32051;48.882;9.210;2023-03-24T17:52:43;1.05;;;0.70;;
46334;SDS011;32051;48.882;9.210;2023-03-24T17:55:11;0.77;;;0.77;;